Island Lake, Illinois
Current Conditions -  °F | °C
As of 3:52 PM on Friday 24 Oct 2014 (Local Time) from KPWK Reporting Station
Clear Clear  
Wind Chill: 68°   Ceiling: Unl
Heat Index: 68°   Visibility: 10mi
Dew Point: 46°   Wind: 6mph
Humidity: 45%   Direction: 220°SW
Pressure: 29.97"   Gusts: NA
Location:  42.28°N, 88.19°W
Report Text: KPWK 242052Z 22005KT 10SM CLR 20/08 A2997 RMK AO2 SLP148 T02000078 56018
Loading
Personal Weather Stations






























Interactive Weather Map
Tropical Storm Tracking
New forecast layout! Learn more

10-Day Weather Forecast

Advertisements
Track Severe Weather on mobile